Flight Track Log - Related Links

Times and Time Zones

All times are in EDT time to prevent confusion due to time zone crossing. See the SKW5619 flight status page for this flight to view local times or setup timezone preferences in your user account.

Time Position Orientation Groundspeed Altitude Reporting Facility
EDT Latitude Longitude Course Direction KTS MPH feet Rate Location/Type
Mon 11:00:00 PM 40.2324 -105.0244 324° Northwest  Level Estimated
Mon 11:01:00 PM 40.3250 -105.1128 324° Northwest  Level Estimated
Mon 11:02:00 PM 40.4174 -105.2015 324° Northwest  Level Estimated
Mon 11:03:00 PM 40.5098 -105.2904 324° Northwest  Level Estimated
Mon 11:04:00 PM 40.6022 -105.3795 324° Northwest  Level Estimated
Mon 11:05:00 PM 40.6944 -105.4689 324° Northwest  Level Estimated
Mon 11:06:00 PM 40.7866 -105.5586 324° Northwest  Level Estimated
Mon 11:07:00 PM 40.8787 -105.6485 324° Northwest  Level Estimated
Mon 11:08:00 PM 40.9708 -105.7386 324° Northwest  Level Estimated
Mon 11:09:00 PM 41.0628 -105.8290 323° Northwest  Level Estimated
Mon 11:10:00 PM 41.1547 -105.9196 323° Northwest  Level Estimated
Mon 11:11:00 PM 41.2465 -106.0105 323° Northwest  Level Estimated
Mon 11:12:00 PM 41.3383 -106.1017 323° Northwest  Level Estimated
Mon 11:13:00 PM 41.4300 -106.1931 323° Northwest  Level Estimated
Mon 11:14:00 PM 41.5216 -106.2848 323° Northwest  Level Estimated
Mon 11:15:00 PM 41.6131 -106.3767 323° Northwest  Level Estimated
Mon 11:16:00 PM 41.7046 -106.4689 323° Northwest  Level Estimated
Mon 11:17:00 PM 41.7960 -106.5613 323° Northwest  Level Estimated
Mon 11:18:00 PM 41.8873 -106.6540 323° Northwest  Level Estimated
Mon 11:19:00 PM 41.9786 -106.7470 323° Northwest  Level Estimated
Mon 11:20:00 PM 42.0697 -106.8403 323° Northwest  Level Estimated
Mon 11:21:00 PM 42.1608 -106.9338 323° Northwest  Level Estimated
Mon 11:22:00 PM 42.2519 -107.0276 323° Northwest  Level Estimated
Mon 11:23:00 PM 42.3428 -107.1216 323° Northwest  Level Estimated
Mon 11:24:00 PM 42.4337 -107.2160 323° Northwest  Level Estimated
Mon 11:25:00 PM 42.5245 -107.3106 322° Northwest  Level Estimated
Mon 11:26:00 PM 42.6152 -107.4054 322° Northwest  Level Estimated
Mon 11:27:00 PM 42.7058 -107.5006 322° Northwest  Level Estimated
Mon 11:28:00 PM 42.7964 -107.5960 322° Northwest  Level Estimated
Mon 11:29:00 PM 42.8869 -107.6917 322° Northwest  Level Estimated
Mon 11:30:00 PM 42.9773 -107.7878 322° Northwest  Level Estimated
Mon 11:31:00 PM 43.0676 -107.8840 322° Northwest  Level Estimated
Mon 11:32:00 PM 43.1578 -107.9806 322° Northwest  Level Estimated
Mon 11:33:00 PM 43.2480 -108.0774 322° Northwest  Level Estimated
Mon 11:34:00 PM 43.3380 -108.1746 322° Northwest  Level Estimated
Mon 11:35:00 PM 43.4280 -108.2720 322° Northwest  Level Estimated
Mon 11:36:00 PM 43.5179 -108.3697 322° Northwest  Level Estimated
Mon 11:37:00 PM 43.6078 -108.4677 322° Northwest  Level Estimated
Mon 11:38:00 PM 43.6975 -108.5660 322° Northwest  Level Estimated
Mon 11:39:00 PM 43.7872 -108.6646 322° Northwest  Level Estimated
Mon 11:40:00 PM 43.8767 -108.7635 321° Northwest  Level Estimated
Mon 11:41:00 PM 43.9662 -108.8627 321° Northwest  Level Estimated
Mon 11:42:00 PM 44.0556 -108.9622 321° Northwest  Level Estimated
Mon 11:43:00 PM 44.1449 -109.0619 321° Northwest  Level Estimated
Mon 11:44:00 PM 44.2341 -109.1620 321° Northwest  Level Estimated
Mon 11:45:00 PM 44.3233 -109.2624 321° Northwest  Level Estimated
Mon 11:46:00 PM 44.4123 -109.3631 321° Northwest  Level Estimated
Mon 11:47:00 PM 44.5013 -109.4641 321° Northwest  Level Estimated
Mon 11:48:00 PM 44.5901 -109.5654 321° Northwest  Level Estimated
Mon 11:49:00 PM 44.6789 -109.6671 321° Northwest  Level Estimated
Mon 11:50:00 PM 44.7676 -109.7690 321° Northwest  Level Estimated
Mon 11:51:00 PM 44.8562 -109.8712 321° Northwest  Level Estimated
Mon 11:52:00 PM 44.9447 -109.9738 321° Northwest  Level Estimated
Mon 11:53:00 PM 45.0331 -110.0767 321° Northwest  Level Estimated
Mon 11:54:00 PM 45.1215 -110.1799 321° Northwest  Level Estimated
Mon 11:55:00 PM 45.2097 -110.2834 320° Northwest  Level Estimated
Mon 11:56:00 PM 45.2978 -110.3872 320° Northwest  Level Estimated
Mon 11:57:00 PM 45.3859 -110.4914 320° Northwest  Level Estimated
Mon 11:58:00 PM 45.4738 -110.5959 320° Northwest  Level Estimated
Mon 11:59:00 PM 45.5617 -110.7007 320° Northwest  Level Estimated
Tue 12:00:00 AM 45.6494 -110.8058 320° Northwest  Level Estimated
Tue 12:01:00 AM 45.7371 -110.9113 320° Northwest  Level Estimated
Tue 12:02:00 AM 45.8246 -111.0171 320° Northwest  Level Estimated
Tue 12:03:00 AM 45.9121 -111.1232 320° Northwest  Level Estimated
Tue 12:04:00 AM 45.9995 -111.2297 320° Northwest  Level Estimated
Tue 12:05:00 AM 46.0867 -111.3365 320° Northwest  Level Estimated
Tue 12:06:00 AM 46.1739 -111.4437 320° Northwest  Level Estimated
Tue 12:07:00 AM 46.2610 -111.5511 320° Northwest  Level Estimated
Tue 12:08:00 AM 46.3479 -111.6590 319° Northwest  Level Estimated
Tue 12:09:00 AM 46.4348 -111.7672 319° Northwest  Level Estimated
Tue 12:10:00 AM 46.5215 -111.8757 319° Northwest  Level Estimated
Tue 12:11:00 AM 46.6068 -111.9827 319° Northwest  Level Estimated
Tue 12:12:00 AM 46.6068 -111.9827 180° South  Level Estimated
Tue 12:13:00 AM 46.6068 -111.9827 180° South  Level Estimated
Tue 12:14:00 AM 46.6068 -111.9827 180° South  Level Estimated
Tue 12:15:00 AM 46.6068 -111.9827 180° South  Level Estimated
Tue 12:16:00 AM 46.6068 -111.9827 180° South  Level Estimated
Tue 12:17:00 AM 46.6068 -111.9827 180° South  Level Estimated
Tue 12:18:00 AM 46.6068 -111.9827 180° South  Level Estimated
Tue 12:19:00 AM 46.6068 -111.9827 180° South  Level Estimated
Tue 12:20:00 AM 46.6068 -111.9827 180° South  Level Estimated
Tue 12:21:00 AM 46.6068 -111.9827 180° South  Level Estimated
Tue 12:22:00 AM 46.6068 -111.9827 180° South  Level Estimated
Tue 12:23:00 AM 46.6068 -111.9827 180° South  Level Estimated
Tue 12:24:00 AM 46.6068 -111.9827 180° South  Level Estimated
Tue 12:25:00 AM 46.6068 -111.9827 180° South  Level Estimated
Tue 12:26:00 AM 46.6068 -111.9827 180° South  Level Estimated
Tue 12:27:00 AM 46.6068 -111.9827 180° South  Level Estimated

Login

Don't have an account? Register now (free) for customized features, flight alerts, and more!